KSKF

Kelly Field Airport

San Antonio, Texas, USA
METAR KSKF 231156Z 03005KT 10SM -RA BKN042 12/10 A3013 RMK AO2A RAE00RAB40 SLP202 P0000 60010 70031 T01160102 10117 20105 53005 $
Observed Flight Rules
Oct-23 @ 11:56 UTC (44 minutes ago) Visual Flight Rules
Wind Visibility Clouds Conditions
30° at 5 knots 10 miles
  • Broken at 4,200' AGL
  • Light Rain
Temperatures Readings Precipitation
Current 12°C / 54°F
Dewpoint 10°C / 50°F
Humidity 88%
Altimeter 30.13" Hg
Pressure 1020.2 hPa
Elevation 210
Current Rain 0.005
METAR KSKF 231156Z 03005KT 10SM -RA BKN042 12/10 A3013 RMK AO2A RAE00RAB40 SLP202 P0000 60010 70031 T01160102 10117 20105 53005 $
Observed Flight Rules
Oct-23 @ 11:56 UTC
(44 minutes ago)
VFR
Wind Visibility
30° at 5 knots 10 miles
Clouds
  • Broken at 4,200' AGL
Conditions
  • Light Rain
Temperature Dewpoint
12°C / 54°F 10°C / 50°F
Humidity Altimeter Pressure
88% 30.13" Hg 1020.2 hPa
Current Rain
0.005